sensor_id;sensor_type;location;lat;lon;timestamp;P1;durP1;ratioP1;P2;durP2;ratioP2
4742;SDS011;24293;48.154;7.748;2023-01-04T00:01:57;30.97;;;15.70;;
4742;SDS011;24293;48.154;7.748;2023-01-04T00:04:25;28.83;;;14.43;;
4742;SDS011;24293;48.154;7.748;2023-01-04T00:06:51;24.37;;;13.63;;
4742;SDS011;24293;48.154;7.748;2023-01-04T00:09:18;24.97;;;14.90;;
4742;SDS011;24293;48.154;7.748;2023-01-04T00:11:45;23.73;;;13.37;;
4742;SDS011;24293;48.154;7.748;2023-01-04T00:14:11;22.60;;;12.93;;
4742;SDS011;24293;48.154;7.748;2023-01-04T00:16:38;23.67;;;13.10;;
4742;SDS011;24293;48.154;7.748;2023-01-04T00:19:04;22.80;;;12.87;;
4742;SDS011;24293;48.154;7.748;2023-01-04T00:21:32;21.80;;;12.77;;
4742;SDS011;24293;48.154;7.748;2023-01-04T00:23:59;25.77;;;12.23;;
4742;SDS011;24293;48.154;7.748;2023-01-04T00:26:26;33.93;;;14.30;;
4742;SDS011;24293;48.154;7.748;2023-01-04T00:28:53;25.93;;;12.70;;
4742;SDS011;24293;48.154;7.748;2023-01-04T00:31:20;23.93;;;12.93;;
4742;SDS011;24293;48.154;7.748;2023-01-04T00:33:47;21.37;;;11.93;;
4742;SDS011;24293;48.154;7.748;2023-01-04T00:36:14;28.33;;;13.32;;
4742;SDS011;24293;48.154;7.748;2023-01-04T00:38:42;22.80;;;12.17;;
4742;SDS011;24293;48.154;7.748;2023-01-04T00:41:08;25.40;;;12.00;;
4742;SDS011;24293;48.154;7.748;2023-01-04T00:43:36;27.13;;;12.90;;
4742;SDS011;24293;48.154;7.748;2023-01-04T00:46:02;25.37;;;11.80;;
4742;SDS011;24293;48.154;7.748;2023-01-04T00:48:31;24.73;;;14.13;;
4742;SDS011;24293;48.154;7.748;2023-01-04T00:50:57;31.30;;;13.57;;
4742;SDS011;24293;48.154;7.748;2023-01-04T00:53:24;35.40;;;15.00;;
4742;SDS011;24293;48.154;7.748;2023-01-04T00:55:57;28.10;;;12.40;;
4742;SDS011;24293;48.154;7.748;2023-01-04T00:58:23;26.50;;;11.77;;
4742;SDS011;24293;48.154;7.748;2023-01-04T01:00:50;27.47;;;12.90;;
4742;SDS011;24293;48.154;7.748;2023-01-04T01:03:17;20.50;;;11.00;;
4742;SDS011;24293;48.154;7.748;2023-01-04T01:05:43;24.63;;;11.60;;
4742;SDS011;24293;48.154;7.748;2023-01-04T01:08:10;19.90;;;9.40;;
4742;SDS011;24293;48.154;7.748;2023-01-04T01:10:53;20.30;;;9.87;;
4742;SDS011;24293;48.154;7.748;2023-01-04T01:13:20;19.30;;;8.93;;
4742;SDS011;24293;48.154;7.748;2023-01-04T01:15:46;15.33;;;8.90;;
4742;SDS011;24293;48.154;7.748;2023-01-04T01:18:13;16.67;;;9.00;;
4742;SDS011;24293;48.154;7.748;2023-01-04T01:20:40;17.80;;;9.47;;
4742;SDS011;24293;48.154;7.748;2023-01-04T01:23:08;16.87;;;8.90;;
4742;SDS011;24293;48.154;7.748;2023-01-04T01:25:34;15.83;;;8.67;;
4742;SDS011;24293;48.154;7.748;2023-01-04T01:28:02;13.13;;;7.60;;
4742;SDS011;24293;48.154;7.748;2023-01-04T01:30:29;14.17;;;7.97;;
4742;SDS011;24293;48.154;7.748;2023-01-04T01:32:55;14.37;;;8.37;;
4742;SDS011;24293;48.154;7.748;2023-01-04T01:35:22;14.97;;;9.13;;
4742;SDS011;24293;48.154;7.748;2023-01-04T01:37:48;15.67;;;8.70;;
4742;SDS011;24293;48.154;7.748;2023-01-04T01:40:15;13.37;;;7.30;;
4742;SDS011;24293;48.154;7.748;2023-01-04T01:42:41;12.50;;;7.40;;
4742;SDS011;24293;48.154;7.748;2023-01-04T01:45:18;15.63;;;8.17;;
4742;SDS011;24293;48.154;7.748;2023-01-04T01:47:47;13.53;;;7.70;;
4742;SDS011;24293;48.154;7.748;2023-01-04T01:50:17;15.73;;;8.50;;
4742;SDS011;24293;48.154;7.748;2023-01-04T01:52:45;11.63;;;7.20;;
4742;SDS011;24293;48.154;7.748;2023-01-04T01:55:12;14.00;;;7.57;;
4742;SDS011;24293;48.154;7.748;2023-01-04T01:57:41;14.43;;;7.57;;
4742;SDS011;24293;48.154;7.748;2023-01-04T02:00:08;15.03;;;7.87;;
4742;SDS011;24293;48.154;7.748;2023-01-04T02:02:37;17.20;;;8.33;;
4742;SDS011;24293;48.154;7.748;2023-01-04T02:05:06;15.10;;;8.30;;
4742;SDS011;24293;48.154;7.748;2023-01-04T02:07:33;18.30;;;8.50;;
4742;SDS011;24293;48.154;7.748;2023-01-04T02:10:01;15.73;;;8.37;;
4742;SDS011;24293;48.154;7.748;2023-01-04T02:12:27;13.13;;;7.50;;
4742;SDS011;24293;48.154;7.748;2023-01-04T02:14:54;13.27;;;7.37;;
4742;SDS011;24293;48.154;7.748;2023-01-04T02:17:22;13.20;;;8.17;;
4742;SDS011;24293;48.154;7.748;2023-01-04T02:20:02;14.93;;;7.20;;
4742;SDS011;24293;48.154;7.748;2023-01-04T02:22:37;12.20;;;6.73;;
4742;SDS011;24293;48.154;7.748;2023-01-04T02:25:13;16.33;;;7.83;;
4742;SDS011;24293;48.154;7.748;2023-01-04T02:27:46;17.70;;;8.87;;
4742;SDS011;24293;48.154;7.748;2023-01-04T02:33:02;16.33;;;8.20;;
4742;SDS011;24293;48.154;7.748;2023-01-04T02:35:34;13.07;;;8.30;;
4742;SDS011;24293;48.154;7.748;2023-01-04T02:38:04;17.10;;;8.13;;
4742;SDS011;24293;48.154;7.748;2023-01-04T02:40:37;12.73;;;6.90;;
4742;SDS011;24293;48.154;7.748;2023-01-04T02:43:08;13.10;;;6.87;;
4742;SDS011;24293;48.154;7.748;2023-01-04T02:45:57;14.03;;;7.10;;
4742;SDS011;24293;48.154;7.748;2023-01-04T02:48:27;11.47;;;6.63;;
4742;SDS011;24293;48.154;7.748;2023-01-04T02:51:27;13.63;;;7.23;;
4742;SDS011;24293;48.154;7.748;2023-01-04T02:53:54;11.10;;;6.80;;
4742;SDS011;24293;48.154;7.748;2023-01-04T02:56:23;10.20;;;6.25;;
4742;SDS011;24293;48.154;7.748;2023-01-04T02:59:13;11.20;;;6.40;;
4742;SDS011;24293;48.154;7.748;2023-01-04T03:01:45;8.17;;;5.40;;
4742;SDS011;24293;48.154;7.748;2023-01-04T03:04:39;10.70;;;5.97;;
4742;SDS011;24293;48.154;7.748;2023-01-04T03:07:32;8.47;;;5.17;;
4742;SDS011;24293;48.154;7.748;2023-01-04T03:10:01;9.73;;;6.20;;
4742;SDS011;24293;48.154;7.748;2023-01-04T03:12:30;9.23;;;5.97;;
4742;SDS011;24293;48.154;7.748;2023-01-04T03:15:00;9.63;;;5.23;;
4742;SDS011;24293;48.154;7.748;2023-01-04T03:17:30;13.37;;;6.10;;
4742;SDS011;24293;48.154;7.748;2023-01-04T03:19:59;8.63;;;5.17;;
4742;SDS011;24293;48.154;7.748;2023-01-04T03:22:31;7.23;;;5.40;;
4742;SDS011;24293;48.154;7.748;2023-01-04T03:25:15;8.73;;;4.63;;
4742;SDS011;24293;48.154;7.748;2023-01-04T03:28:01;7.50;;;4.40;;
4742;SDS011;24293;48.154;7.748;2023-01-04T03:30:49;8.70;;;4.40;;
4742;SDS011;24293;48.154;7.748;2023-01-04T03:33:33;6.87;;;3.90;;
4742;SDS011;24293;48.154;7.748;2023-01-04T03:36:28;8.23;;;4.30;;
4742;SDS011;24293;48.154;7.748;2023-01-04T03:38:59;6.10;;;3.83;;
4742;SDS011;24293;48.154;7.748;2023-01-04T03:41:44;6.47;;;3.47;;
4742;SDS011;24293;48.154;7.748;2023-01-04T03:44:30;7.43;;;3.43;;
4742;SDS011;24293;48.154;7.748;2023-01-04T03:47:17;5.40;;;3.63;;
4742;SDS011;24293;48.154;7.748;2023-01-04T03:50:04;8.23;;;4.00;;
4742;SDS011;24293;48.154;7.748;2023-01-04T03:52:33;5.23;;;3.23;;
4742;SDS011;24293;48.154;7.748;2023-01-04T03:55:00;6.83;;;4.60;;
4742;SDS011;24293;48.154;7.748;2023-01-04T03:57:27;6.43;;;3.50;;
4742;SDS011;24293;48.154;7.748;2023-01-04T03:59:55;6.50;;;4.00;;
4742;SDS011;24293;48.154;7.748;2023-01-04T04:02:23;7.70;;;4.10;;
4742;SDS011;24293;48.154;7.748;2023-01-04T04:04:50;7.97;;;4.10;;
4742;SDS011;24293;48.154;7.748;2023-01-04T04:07:35;6.90;;;4.30;;
4742;SDS011;24293;48.154;7.748;2023-01-04T04:10:20;7.53;;;4.20;;
4742;SDS011;24293;48.154;7.748;2023-01-04T04:12:46;5.33;;;3.70;;
4742;SDS011;24293;48.154;7.748;2023-01-04T04:15:13;5.80;;;3.97;;
4742;SDS011;24293;48.154;7.748;2023-01-04T04:17:39;6.80;;;3.80;;
4742;SDS011;24293;48.154;7.748;2023-01-04T04:20:06;8.30;;;4.40;;
4742;SDS011;24293;48.154;7.748;2023-01-04T04:22:33;6.97;;;4.23;;
4742;SDS011;24293;48.154;7.748;2023-01-04T04:25:01;8.13;;;3.67;;
4742;SDS011;24293;48.154;7.748;2023-01-04T04:27:27;7.83;;;4.13;;
4742;SDS011;24293;48.154;7.748;2023-01-04T04:29:54;4.83;;;3.30;;
4742;SDS011;24293;48.154;7.748;2023-01-04T04:32:20;5.10;;;3.00;;
4742;SDS011;24293;48.154;7.748;2023-01-04T04:34:47;7.10;;;3.80;;
4742;SDS011;24293;48.154;7.748;2023-01-04T04:37:14;5.73;;;3.60;;
4742;SDS011;24293;48.154;7.748;2023-01-04T04:39:40;7.77;;;3.90;;
4742;SDS011;24293;48.154;7.748;2023-01-04T04:42:08;6.93;;;3.40;;
4742;SDS011;24293;48.154;7.748;2023-01-04T04:44:34;4.37;;;2.80;;
4742;SDS011;24293;48.154;7.748;2023-01-04T04:47:00;5.70;;;2.60;;
4742;SDS011;24293;48.154;7.748;2023-01-04T04:49:27;5.07;;;3.10;;
4742;SDS011;24293;48.154;7.748;2023-01-04T04:51:54;9.67;;;3.90;;
4742;SDS011;24293;48.154;7.748;2023-01-04T04:54:20;8.70;;;3.80;;
4742;SDS011;24293;48.154;7.748;2023-01-04T04:56:47;4.40;;;2.93;;
4742;SDS011;24293;48.154;7.748;2023-01-04T04:59:15;7.50;;;3.63;;
4742;SDS011;24293;48.154;7.748;2023-01-04T05:01:42;4.40;;;3.30;;
4742;SDS011;24293;48.154;7.748;2023-01-04T05:04:08;5.80;;;3.60;;
4742;SDS011;24293;48.154;7.748;2023-01-04T05:06:40;5.80;;;3.30;;
4742;SDS011;24293;48.154;7.748;2023-01-04T05:09:06;4.30;;;2.90;;
4742;SDS011;24293;48.154;7.748;2023-01-04T05:11:33;6.20;;;3.77;;
4742;SDS011;24293;48.154;7.748;2023-01-04T05:14:18;6.17;;;3.67;;
4742;SDS011;24293;48.154;7.748;2023-01-04T05:16:44;6.50;;;3.20;;
4742;SDS011;24293;48.154;7.748;2023-01-04T05:19:11;7.23;;;3.50;;
4742;SDS011;24293;48.154;7.748;2023-01-04T05:21:37;4.70;;;3.27;;
4742;SDS011;24293;48.154;7.748;2023-01-04T05:24:05;4.23;;;3.10;;
4742;SDS011;24293;48.154;7.748;2023-01-04T05:26:31;7.40;;;4.60;;
4742;SDS011;24293;48.154;7.748;2023-01-04T05:28:58;5.10;;;3.30;;
4742;SDS011;24293;48.154;7.748;2023-01-04T05:31:26;5.13;;;3.20;;
4742;SDS011;24293;48.154;7.748;2023-01-04T05:33:51;5.80;;;3.10;;
4742;SDS011;24293;48.154;7.748;2023-01-04T05:36:18;4.93;;;2.77;;
4742;SDS011;24293;48.154;7.748;2023-01-04T05:38:44;5.73;;;3.30;;
4742;SDS011;24293;48.154;7.748;2023-01-04T05:41:11;6.07;;;3.20;;
4742;SDS011;24293;48.154;7.748;2023-01-04T05:43:51;5.40;;;3.30;;
4742;SDS011;24293;48.154;7.748;2023-01-04T05:46:18;4.40;;;3.20;;
4742;SDS011;24293;48.154;7.748;2023-01-04T05:48:46;6.97;;;3.87;;
4742;SDS011;24293;48.154;7.748;2023-01-04T05:51:12;4.43;;;2.27;;
4742;SDS011;24293;48.154;7.748;2023-01-04T05:53:39;3.47;;;2.10;;
4742;SDS011;24293;48.154;7.748;2023-01-04T05:56:05;10.80;;;2.37;;
4742;SDS011;24293;48.154;7.748;2023-01-04T05:58:32;4.67;;;1.90;;
4742;SDS011;24293;48.154;7.748;2023-01-04T06:00:58;3.20;;;1.90;;
4742;SDS011;24293;48.154;7.748;2023-01-04T06:03:25;2.80;;;1.90;;
4742;SDS011;24293;48.154;7.748;2023-01-04T06:05:52;6.93;;;1.50;;
4742;SDS011;24293;48.154;7.748;2023-01-04T06:08:19;2.60;;;1.40;;
4742;SDS011;24293;48.154;7.748;2023-01-04T06:10:51;5.53;;;1.30;;
4742;SDS011;24293;48.154;7.748;2023-01-04T06:13:17;3.30;;;1.87;;
4742;SDS011;24293;48.154;7.748;2023-01-04T06:15:44;4.30;;;1.30;;
4742;SDS011;24293;48.154;7.748;2023-01-04T06:18:11;2.23;;;1.47;;
4742;SDS011;24293;48.154;7.748;2023-01-04T06:20:37;2.20;;;1.10;;
4742;SDS011;24293;48.154;7.748;2023-01-04T06:23:05;1.67;;;1.03;;
4742;SDS011;24293;48.154;7.748;2023-01-04T06:25:33;5.30;;;1.50;;
4742;SDS011;24293;48.154;7.748;2023-01-04T06:27:59;3.60;;;1.30;;
4742;SDS011;24293;48.154;7.748;2023-01-04T06:30:26;3.87;;;1.70;;
4742;SDS011;24293;48.154;7.748;2023-01-04T06:32:53;18.40;;;10.07;;
4742;SDS011;24293;48.154;7.748;2023-01-04T06:35:19;2.40;;;1.67;;
4742;SDS011;24293;48.154;7.748;2023-01-04T06:37:46;2.40;;;1.33;;
4742;SDS011;24293;48.154;7.748;2023-01-04T06:40:14;3.00;;;2.00;;
4742;SDS011;24293;48.154;7.748;2023-01-04T06:42:40;4.13;;;2.57;;
4742;SDS011;24293;48.154;7.748;2023-01-04T06:45:10;4.33;;;2.47;;
4742;SDS011;24293;48.154;7.748;2023-01-04T06:47:36;4.50;;;1.37;;
4742;SDS011;24293;48.154;7.748;2023-01-04T06:50:03;2.80;;;1.40;;
4742;SDS011;24293;48.154;7.748;2023-01-04T06:52:30;4.40;;;2.80;;
4742;SDS011;24293;48.154;7.748;2023-01-04T06:54:56;4.20;;;1.90;;
4742;SDS011;24293;48.154;7.748;2023-01-04T06:57:25;2.40;;;1.60;;
4742;SDS011;24293;48.154;7.748;2023-01-04T06:59:51;4.37;;;2.00;;
4742;SDS011;24293;48.154;7.748;2023-01-04T07:02:18;6.83;;;1.90;;
4742;SDS011;24293;48.154;7.748;2023-01-04T07:04:44;2.67;;;1.00;;
4742;SDS011;24293;48.154;7.748;2023-01-04T07:07:11;2.77;;;1.10;;
4742;SDS011;24293;48.154;7.748;2023-01-04T07:09:37;2.40;;;0.80;;
4742;SDS011;24293;48.154;7.748;2023-01-04T07:12:04;5.73;;;1.03;;
4742;SDS011;24293;48.154;7.748;2023-01-04T07:14:32;1.97;;;0.87;;
4742;SDS011;24293;48.154;7.748;2023-01-04T07:16:59;2.97;;;0.93;;
4742;SDS011;24293;48.154;7.748;2023-01-04T07:19:25;4.10;;;0.87;;
4742;SDS011;24293;48.154;7.748;2023-01-04T07:21:52;2.10;;;1.07;;
4742;SDS011;24293;48.154;7.748;2023-01-04T07:24:18;2.03;;;1.00;;
4742;SDS011;24293;48.154;7.748;2023-01-04T07:26:45;2.00;;;0.90;;
4742;SDS011;24293;48.154;7.748;2023-01-04T07:29:12;4.13;;;1.20;;
4742;SDS011;24293;48.154;7.748;2023-01-04T07:31:44;2.53;;;0.87;;
4742;SDS011;24293;48.154;7.748;2023-01-04T07:34:11;1.43;;;0.80;;
4742;SDS011;24293;48.154;7.748;2023-01-04T07:36:37;3.17;;;1.20;;
4742;SDS011;24293;48.154;7.748;2023-01-04T07:39:04;1.73;;;0.80;;
4742;SDS011;24293;48.154;7.748;2023-01-04T07:41:31;1.67;;;0.90;;
4742;SDS011;24293;48.154;7.748;2023-01-04T07:43:57;2.63;;;1.10;;
4742;SDS011;24293;48.154;7.748;2023-01-04T07:46:25;1.50;;;0.80;;
4742;SDS011;24293;48.154;7.748;2023-01-04T07:48:53;2.60;;;1.00;;
4742;SDS011;24293;48.154;7.748;2023-01-04T07:51:20;2.03;;;0.90;;
4742;SDS011;24293;48.154;7.748;2023-01-04T07:53:46;4.93;;;1.30;;
4742;SDS011;24293;48.154;7.748;2023-01-04T07:56:13;2.30;;;1.20;;
4742;SDS011;24293;48.154;7.748;2023-01-04T07:58:39;2.80;;;1.00;;
4742;SDS011;24293;48.154;7.748;2023-01-04T08:01:08;6.23;;;1.40;;
4742;SDS011;24293;48.154;7.748;2023-01-04T08:03:36;4.03;;;1.03;;
4742;SDS011;24293;48.154;7.748;2023-01-04T08:06:04;4.20;;;1.40;;
4742;SDS011;24293;48.154;7.748;2023-01-04T08:08:31;1.97;;;1.20;;
4742;SDS011;24293;48.154;7.748;2023-01-04T08:10:59;3.63;;;1.40;;
4742;SDS011;24293;48.154;7.748;2023-01-04T08:13:26;2.00;;;1.00;;
4742;SDS011;24293;48.154;7.748;2023-01-04T08:15:52;3.60;;;1.03;;
4742;SDS011;24293;48.154;7.748;2023-01-04T08:18:19;1.80;;;1.00;;
4742;SDS011;24293;48.154;7.748;2023-01-04T08:20:45;3.43;;;0.90;;
4742;SDS011;24293;48.154;7.748;2023-01-04T08:23:13;3.03;;;0.80;;
4742;SDS011;24293;48.154;7.748;2023-01-04T08:25:40;1.40;;;0.90;;
4742;SDS011;24293;48.154;7.748;2023-01-04T08:28:06;3.80;;;1.27;;
4742;SDS011;24293;48.154;7.748;2023-01-04T08:30:33;2.00;;;1.00;;
4742;SDS011;24293;48.154;7.748;2023-01-04T08:32:59;3.27;;;0.90;;
4742;SDS011;24293;48.154;7.748;2023-01-04T08:35:26;1.20;;;0.80;;
4742;SDS011;24293;48.154;7.748;2023-01-04T08:37:53;2.10;;;1.00;;
4742;SDS011;24293;48.154;7.748;2023-01-04T08:40:24;5.30;;;0.90;;
4742;SDS011;24293;48.154;7.748;2023-01-04T08:42:50;2.33;;;0.97;;
4742;SDS011;24293;48.154;7.748;2023-01-04T08:45:17;3.63;;;1.03;;
4742;SDS011;24293;48.154;7.748;2023-01-04T08:47:43;35.10;;;14.03;;
4742;SDS011;24293;48.154;7.748;2023-01-04T08:50:10;1.93;;;1.20;;
4742;SDS011;24293;48.154;7.748;2023-01-04T08:52:37;2.30;;;1.30;;
4742;SDS011;24293;48.154;7.748;2023-01-04T08:55:04;3.27;;;1.37;;
4742;SDS011;24293;48.154;7.748;2023-01-04T08:57:31;1.50;;;0.80;;
4742;SDS011;24293;48.154;7.748;2023-01-04T08:59:59;2.90;;;1.30;;
4742;SDS011;24293;48.154;7.748;2023-01-04T09:02:26;4.60;;;1.80;;
4742;SDS011;24293;48.154;7.748;2023-01-04T09:04:52;1.73;;;0.90;;
4742;SDS011;24293;48.154;7.748;2023-01-04T09:07:23;2.60;;;1.20;;
4742;SDS011;24293;48.154;7.748;2023-01-04T09:09:50;4.10;;;1.60;;
4742;SDS011;24293;48.154;7.748;2023-01-04T09:12:16;4.20;;;1.40;;
4742;SDS011;24293;48.154;7.748;2023-01-04T09:14:44;4.13;;;1.60;;
4742;SDS011;24293;48.154;7.748;2023-01-04T09:17:10;3.10;;;1.77;;
4742;SDS011;24293;48.154;7.748;2023-01-04T09:19:37;2.07;;;1.40;;
4742;SDS011;24293;48.154;7.748;2023-01-04T09:22:03;2.13;;;1.17;;
4742;SDS011;24293;48.154;7.748;2023-01-04T09:24:31;2.27;;;1.20;;
4742;SDS011;24293;48.154;7.748;2023-01-04T09:26:57;2.40;;;1.23;;
4742;SDS011;24293;48.154;7.748;2023-01-04T09:29:24;2.17;;;1.30;;
4742;SDS011;24293;48.154;7.748;2023-01-04T09:31:53;3.60;;;1.37;;
4742;SDS011;24293;48.154;7.748;2023-01-04T09:34:19;2.97;;;1.10;;
4742;SDS011;24293;48.154;7.748;2023-01-04T09:36:46;2.47;;;1.53;;
4742;SDS011;24293;48.154;7.748;2023-01-04T09:39:13;3.53;;;1.50;;
4742;SDS011;24293;48.154;7.748;2023-01-04T09:41:42;3.50;;;1.40;;
4742;SDS011;24293;48.154;7.748;2023-01-04T09:44:13;5.23;;;1.63;;
4742;SDS011;24293;48.154;7.748;2023-01-04T09:46:44;4.37;;;1.60;;
4742;SDS011;24293;48.154;7.748;2023-01-04T09:49:15;3.40;;;1.73;;
4742;SDS011;24293;48.154;7.748;2023-01-04T09:51:44;1.87;;;1.23;;
4742;SDS011;24293;48.154;7.748;2023-01-04T09:54:14;3.17;;;1.50;;
4742;SDS011;24293;48.154;7.748;2023-01-04T09:56:46;3.17;;;1.60;;
4742;SDS011;24293;48.154;7.748;2023-01-04T09:59:13;2.80;;;1.57;;
4742;SDS011;24293;48.154;7.748;2023-01-04T10:01:42;3.17;;;1.80;;
4742;SDS011;24293;48.154;7.748;2023-01-04T10:04:12;2.27;;;1.60;;
4742;SDS011;24293;48.154;7.748;2023-01-04T10:06:42;4.40;;;2.00;;
4742;SDS011;24293;48.154;7.748;2023-01-04T10:09:09;4.17;;;2.00;;
4742;SDS011;24293;48.154;7.748;2023-01-04T10:11:40;2.90;;;1.37;;
4742;SDS011;24293;48.154;7.748;2023-01-04T10:14:19;3.90;;;1.43;;
4742;SDS011;24293;48.154;7.748;2023-01-04T10:16:56;3.03;;;1.23;;
4742;SDS011;24293;48.154;7.748;2023-01-04T10:19:29;4.27;;;1.30;;
4742;SDS011;24293;48.154;7.748;2023-01-04T10:22:00;3.43;;;1.30;;
4742;SDS011;24293;48.154;7.748;2023-01-04T10:24:34;5.20;;;1.23;;
4742;SDS011;24293;48.154;7.748;2023-01-04T10:27:05;2.20;;;1.10;;
4742;SDS011;24293;48.154;7.748;2023-01-04T10:29:42;2.87;;;1.40;;
4742;SDS011;24293;48.154;7.748;2023-01-04T10:46:31;3.50;;;1.90;;
4742;SDS011;24293;48.154;7.748;2023-01-04T10:49:02;4.60;;;2.33;;
4742;SDS011;24293;48.154;7.748;2023-01-04T10:51:33;3.53;;;1.60;;
4742;SDS011;24293;48.154;7.748;2023-01-04T10:54:05;3.13;;;1.43;;
4742;SDS011;24293;48.154;7.748;2023-01-04T10:56:34;3.90;;;1.47;;
4742;SDS011;24293;48.154;7.748;2023-01-04T10:59:04;2.43;;;1.23;;
4742;SDS011;24293;48.154;7.748;2023-01-04T11:01:35;2.17;;;1.40;;
4742;SDS011;24293;48.154;7.748;2023-01-04T11:04:04;3.10;;;1.40;;
4742;SDS011;24293;48.154;7.748;2023-01-04T11:06:37;2.80;;;1.40;;
4742;SDS011;24293;48.154;7.748;2023-01-04T11:09:05;4.63;;;1.57;;
4742;SDS011;24293;48.154;7.748;2023-01-04T11:11:35;6.97;;;3.47;;
4742;SDS011;24293;48.154;7.748;2023-01-04T11:14:03;7.90;;;3.63;;
4742;SDS011;24293;48.154;7.748;2023-01-04T11:16:29;4.27;;;1.90;;
4742;SDS011;24293;48.154;7.748;2023-01-04T11:18:58;4.03;;;2.17;;
4742;SDS011;24293;48.154;7.748;2023-01-04T11:21:25;8.00;;;1.97;;
4742;SDS011;24293;48.154;7.748;2023-01-04T11:23:53;6.67;;;2.63;;
4742;SDS011;24293;48.154;7.748;2023-01-04T11:26:22;4.70;;;2.10;;
4742;SDS011;24293;48.154;7.748;2023-01-04T11:28:53;4.00;;;1.80;;
4742;SDS011;24293;48.154;7.748;2023-01-04T11:31:21;9.00;;;2.40;;
4742;SDS011;24293;48.154;7.748;2023-01-04T11:33:50;4.70;;;2.20;;
4742;SDS011;24293;48.154;7.748;2023-01-04T11:36:30;3.90;;;1.80;;
4742;SDS011;24293;48.154;7.748;2023-01-04T11:38:57;4.53;;;1.90;;
4742;SDS011;24293;48.154;7.748;2023-01-04T11:41:24;3.20;;;1.80;;
4742;SDS011;24293;48.154;7.748;2023-01-04T11:43:55;3.97;;;1.60;;
4742;SDS011;24293;48.154;7.748;2023-01-04T11:46:22;4.70;;;1.70;;
4742;SDS011;24293;48.154;7.748;2023-01-04T11:48:49;3.57;;;1.93;;
4742;SDS011;24293;48.154;7.748;2023-01-04T11:51:18;2.00;;;1.27;;
4742;SDS011;24293;48.154;7.748;2023-01-04T11:53:46;4.17;;;1.80;;
4742;SDS011;24293;48.154;7.748;2023-01-04T11:56:22;4.30;;;1.77;;
4742;SDS011;24293;48.154;7.748;2023-01-04T11:59:03;4.30;;;2.30;;
4742;SDS011;24293;48.154;7.748;2023-01-04T12:01:31;3.07;;;1.33;;
4742;SDS011;24293;48.154;7.748;2023-01-04T12:03:57;3.97;;;1.70;;
4742;SDS011;24293;48.154;7.748;2023-01-04T12:06:28;3.73;;;1.53;;
4742;SDS011;24293;48.154;7.748;2023-01-04T12:08:57;3.60;;;1.40;;
4742;SDS011;24293;48.154;7.748;2023-01-04T12:11:25;4.43;;;1.30;;
4742;SDS011;24293;48.154;7.748;2023-01-04T12:13:53;3.50;;;1.67;;
4742;SDS011;24293;48.154;7.748;2023-01-04T12:16:21;2.33;;;1.40;;
4742;SDS011;24293;48.154;7.748;2023-01-04T12:18:50;3.60;;;1.67;;
4742;SDS011;24293;48.154;7.748;2023-01-04T12:21:18;3.00;;;1.50;;
4742;SDS011;24293;48.154;7.748;2023-01-04T12:23:45;3.63;;;1.83;;
4742;SDS011;24293;48.154;7.748;2023-01-04T12:26:13;3.40;;;1.73;;
4742;SDS011;24293;48.154;7.748;2023-01-04T12:28:41;2.93;;;1.60;;
4742;SDS011;24293;48.154;7.748;2023-01-04T12:33:53;2.13;;;1.37;;
4742;SDS011;24293;48.154;7.748;2023-01-04T12:36:20;4.10;;;1.53;;
4742;SDS011;24293;48.154;7.748;2023-01-04T12:39:02;3.40;;;1.53;;
4742;SDS011;24293;48.154;7.748;2023-01-04T12:47:36;4.00;;;1.90;;
4742;SDS011;24293;48.154;7.748;2023-01-04T12:50:21;5.60;;;1.80;;
4742;SDS011;24293;48.154;7.748;2023-01-04T12:52:50;4.63;;;1.70;;
4742;SDS011;24293;48.154;7.748;2023-01-04T12:55:24;4.03;;;1.40;;
4742;SDS011;24293;48.154;7.748;2023-01-04T12:57:52;3.97;;;1.60;;
4742;SDS011;24293;48.154;7.748;2023-01-04T13:00:18;3.03;;;1.73;;
4742;SDS011;24293;48.154;7.748;2023-01-04T13:02:46;3.40;;;1.90;;
4742;SDS011;24293;48.154;7.748;2023-01-04T13:05:31;13.70;;;3.00;;
4742;SDS011;24293;48.154;7.748;2023-01-04T13:07:59;2.50;;;1.20;;
4742;SDS011;24293;48.154;7.748;2023-01-04T13:10:29;3.43;;;1.43;;
4742;SDS011;24293;48.154;7.748;2023-01-04T13:13:02;2.23;;;1.27;;
4742;SDS011;24293;48.154;7.748;2023-01-04T13:15:37;7.80;;;3.53;;
4742;SDS011;24293;48.154;7.748;2023-01-04T13:18:14;1.73;;;1.20;;
4742;SDS011;24293;48.154;7.748;2023-01-04T13:20:48;6.03;;;2.20;;
4742;SDS011;24293;48.154;7.748;2023-01-04T13:23:15;7.03;;;2.30;;
4742;SDS011;24293;48.154;7.748;2023-01-04T13:25:42;6.60;;;2.40;;
4742;SDS011;24293;48.154;7.748;2023-01-04T13:28:14;3.00;;;1.73;;
4742;SDS011;24293;48.154;7.748;2023-01-04T13:30:41;6.97;;;1.97;;
4742;SDS011;24293;48.154;7.748;2023-01-04T13:33:08;3.17;;;2.17;;
4742;SDS011;24293;48.154;7.748;2023-01-04T13:35:37;4.20;;;1.37;;
4742;SDS011;24293;48.154;7.748;2023-01-04T13:38:08;2.77;;;1.70;;
4742;SDS011;24293;48.154;7.748;2023-01-04T13:40:36;4.10;;;1.13;;
4742;SDS011;24293;48.154;7.748;2023-01-04T13:43:11;5.13;;;1.80;;
4742;SDS011;24293;48.154;7.748;2023-01-04T13:45:48;3.10;;;1.73;;
4742;SDS011;24293;48.154;7.748;2023-01-04T13:48:16;9.20;;;1.70;;
4742;SDS011;24293;48.154;7.748;2023-01-04T13:50:56;5.20;;;1.50;;
4742;SDS011;24293;48.154;7.748;2023-01-04T13:53:24;2.73;;;1.23;;
4742;SDS011;24293;48.154;7.748;2023-01-04T13:55:51;5.93;;;1.67;;
4742;SDS011;24293;48.154;7.748;2023-01-04T13:58:18;4.97;;;1.80;;
4742;SDS011;24293;48.154;7.748;2023-01-04T14:00:47;2.77;;;1.60;;
4742;SDS011;24293;48.154;7.748;2023-01-04T14:03:25;6.60;;;2.67;;
4742;SDS011;24293;48.154;7.748;2023-01-04T14:05:54;3.40;;;1.80;;
4742;SDS011;24293;48.154;7.748;2023-01-04T14:08:24;4.20;;;1.70;;
4742;SDS011;24293;48.154;7.748;2023-01-04T14:10:54;3.13;;;2.10;;
4742;SDS011;24293;48.154;7.748;2023-01-04T14:13:21;5.10;;;2.23;;
4742;SDS011;24293;48.154;7.748;2023-01-04T14:16:01;8.00;;;1.80;;
4742;SDS011;24293;48.154;7.748;2023-01-04T14:18:28;3.60;;;1.37;;
4742;SDS011;24293;48.154;7.748;2023-01-04T14:20:56;6.80;;;2.47;;
4742;SDS011;24293;48.154;7.748;2023-01-04T14:23:27;6.80;;;2.50;;
4742;SDS011;24293;48.154;7.748;2023-01-04T14:25:54;2.80;;;1.83;;
4742;SDS011;24293;48.154;7.748;2023-01-04T14:28:27;7.03;;;2.80;;
4742;SDS011;24293;48.154;7.748;2023-01-04T14:30:55;6.63;;;2.60;;
4742;SDS011;24293;48.154;7.748;2023-01-04T14:33:29;3.20;;;1.60;;
4742;SDS011;24293;48.154;7.748;2023-01-04T14:36:01;4.83;;;2.40;;
4742;SDS011;24293;48.154;7.748;2023-01-04T14:38:28;4.57;;;1.83;;
4742;SDS011;24293;48.154;7.748;2023-01-04T14:40:55;7.40;;;2.00;;
4742;SDS011;24293;48.154;7.748;2023-01-04T14:43:30;2.83;;;1.53;;
4742;SDS011;24293;48.154;7.748;2023-01-04T14:45:57;5.50;;;2.00;;
4742;SDS011;24293;48.154;7.748;2023-01-04T14:48:24;3.07;;;1.30;;
4742;SDS011;24293;48.154;7.748;2023-01-04T14:50:50;4.23;;;1.27;;
4742;SDS011;24293;48.154;7.748;2023-01-04T14:53:18;2.00;;;1.23;;
4742;SDS011;24293;48.154;7.748;2023-01-04T14:55:45;5.00;;;1.57;;
4742;SDS011;24293;48.154;7.748;2023-01-04T14:58:12;3.73;;;1.47;;
4742;SDS011;24293;48.154;7.748;2023-01-04T15:00:38;3.97;;;2.30;;
4742;SDS011;24293;48.154;7.748;2023-01-04T15:03:05;4.33;;;1.00;;
4742;SDS011;24293;48.154;7.748;2023-01-04T15:05:33;1.60;;;1.00;;
4742;SDS011;24293;48.154;7.748;2023-01-04T15:08:00;1.40;;;0.90;;
4742;SDS011;24293;48.154;7.748;2023-01-04T15:10:28;5.10;;;1.77;;
4742;SDS011;24293;48.154;7.748;2023-01-04T15:12:55;4.80;;;2.37;;
4742;SDS011;24293;48.154;7.748;2023-01-04T15:15:24;3.50;;;1.10;;
4742;SDS011;24293;48.154;7.748;2023-01-04T15:17:51;1.40;;;1.00;;
4742;SDS011;24293;48.154;7.748;2023-01-04T15:20:18;4.13;;;1.60;;
4742;SDS011;24293;48.154;7.748;2023-01-04T15:22:44;5.03;;;1.50;;
4742;SDS011;24293;48.154;7.748;2023-01-04T15:25:11;3.30;;;1.70;;
4742;SDS011;24293;48.154;7.748;2023-01-04T15:27:38;8.13;;;1.60;;
4742;SDS011;24293;48.154;7.748;2023-01-04T15:30:05;4.77;;;1.77;;
4742;SDS011;24293;48.154;7.748;2023-01-04T15:32:32;4.37;;;2.27;;
4742;SDS011;24293;48.154;7.748;2023-01-04T15:34:59;2.37;;;0.97;;
4742;SDS011;24293;48.154;7.748;2023-01-04T15:37:25;2.03;;;1.23;;